Time;durP1;ratioP1;P1;durP2;ratioP2;P2;SDS_P1;SDS_P2;PMS_P1;PMS_P2;Temp;Humidity;BMP_temperature;BMP_pressure;BME280_temperature;BME280_humidity;BME280_pressure;Samples;Min_cycle;Max_cycle;Signal;HPM_P1;HPM_P2
2023/05/04 00:00:31;;;;;;;;;4.67;4.67;;;;;18.73;55.54;100132.75;5076233;28;45534;-73
2023/05/04 00:02:57;;;;;;;;;6.00;4.67;;;;;18.56;55.71;100117.00;5077967;28;45453;-73
2023/05/04 00:05:22;;;;;;;;;5.00;4.00;;;;;18.63;55.78;100134.59;5077551;27;45367;-73
2023/05/04 00:07:48;;;;;;;;;4.67;4.33;;;;;18.62;56.21;100146.06;5077229;27;45481;-73
2023/05/04 00:10:13;;;;;;;;;5.33;4.67;;;;;18.55;56.08;100160.25;5077327;28;45490;-73
2023/05/04 00:12:39;;;;;;;;;3.33;3.00;;;;;18.52;55.97;100154.97;5077994;27;45396;-73
2023/05/04 00:15:05;;;;;;;;;8.67;7.00;;;;;18.62;56.27;100164.56;5076649;28;45515;-73
2023/05/04 00:17:31;;;;;;;;;5.00;4.67;;;;;18.43;56.26;100161.22;5077807;27;45720;-74
2023/05/04 00:19:57;;;;;;;;;4.33;4.33;;;;;18.43;56.51;100161.22;5077526;27;45406;-73
2023/05/04 00:22:22;;;;;;;;;5.67;4.67;;;;;18.46;56.13;100172.66;5077587;27;45175;-74
2023/05/04 00:24:48;;;;;;;;;4.67;4.67;;;;;18.42;56.00;100176.22;5078001;28;45490;-74
2023/05/04 00:27:13;;;;;;;;;6.33;4.00;;;;;18.39;55.92;100185.94;5076053;28;47616;-74
2023/05/04 00:29:39;;;;;;;;;5.00;4.00;;;;;18.33;56.78;100184.22;5076150;28;45246;-74
2023/05/04 00:32:05;;;;;;;;;5.00;4.00;;;;;18.27;57.05;100208.94;5077605;27;45573;-74
2023/05/04 00:34:35;;;;;;;;;3.00;2.33;;;;;18.13;57.57;100207.28;5077755;27;45552;-74
2023/05/04 00:37:00;;;;;;;;;5.67;4.00;;;;;18.17;57.94;100228.41;5077815;27;46403;-73
2023/05/04 00:39:26;;;;;;;;;4.67;3.33;;;;;18.21;56.79;100232.78;5077226;27;45472;-74
2023/05/04 00:41:51;;;;;;;;;3.67;3.67;;;;;18.21;57.75;100247.78;5077420;27;45358;-73
2023/05/04 00:44:17;;;;;;;;;3.33;2.33;;;;;18.24;56.53;100266.25;5077498;28;45471;-73
2023/05/04 00:46:43;;;;;;;;;2.67;2.67;;;;;18.19;57.47;100278.63;5075738;28;45366;-74
2023/05/04 00:49:09;;;;;;;;;4.00;1.67;;;;;18.07;56.97;100248.72;5075811;28;45437;-73
2023/05/04 00:51:35;;;;;;;;;2.67;2.67;;;;;18.20;56.63;100283.00;5075764;28;45388;-74
2023/05/04 00:54:01;;;;;;;;;1.33;0.67;;;;;18.11;57.10;100278.66;5077950;27;45345;-74
2023/05/04 00:56:28;;;;;;;;;2.00;1.00;;;;;18.22;57.36;100307.69;5092306;27;46473;-73
2023/05/04 00:58:56;;;;;;;;;3.33;2.00;;;;;18.19;57.23;100308.59;5075928;28;45452;-74
2023/05/04 01:01:23;;;;;;;;;2.00;1.33;;;;;18.20;57.71;100312.09;5076782;28;45185;-74
2023/05/04 01:03:50;;;;;;;;;1.33;1.00;;;;;18.17;57.87;100312.13;5077226;27;45307;-73
2023/05/04 01:06:46;;;;;;;;;1.67;0.67;;;;;18.24;57.79;100314.75;5076878;27;46035;-74
2023/05/04 01:09:26;;;;;;;;;2.00;1.00;;;;;18.25;58.03;100316.47;5076866;28;45434;-74
2023/05/04 01:12:03;;;;;;;;;2.33;1.00;;;;;18.31;57.36;100326.16;5074841;27;45532;-74
2023/05/04 01:14:30;;;;;;;;;0.67;0.67;;;;;18.31;57.44;100328.78;5075813;28;45583;-74
2023/05/04 01:16:59;;;;;;;;;1.00;1.00;;;;;18.29;57.41;100315.56;5076512;27;45560;-74
2023/05/04 01:19:27;;;;;;;;;1.00;1.00;;;;;18.33;57.43;100327.03;5076541;27;45210;-73
2023/05/04 01:21:53;;;;;;;;;2.00;2.00;;;;;18.20;58.33;100309.44;5078921;28;45468;-73
2023/05/04 01:24:19;;;;;;;;;2.33;1.67;;;;;18.26;57.90;100317.34;5079045;28;45549;-74
2023/05/04 01:26:47;;;;;;;;;2.00;1.00;;;;;18.14;57.94;100302.41;5078836;28;47452;-73
2023/05/04 01:29:26;;;;;;;;;2.00;1.33;;;;;18.19;58.67;100313.88;5080021;27;45495;-73
2023/05/04 01:31:52;;;;;;;;;1.00;1.00;;;;;18.16;57.91;100318.28;5080117;27;45504;-73
2023/05/04 01:34:20;;;;;;;;;2.67;1.67;;;;;18.20;58.21;100323.53;5079977;27;45425;-74
2023/05/04 01:36:46;;;;;;;;;1.00;1.00;;;;;18.16;57.26;100294.50;5079914;27;45467;-74
2023/05/04 01:39:12;;;;;;;;;2.33;1.67;;;;;18.15;57.65;100292.75;5078640;28;45526;-73
2023/05/04 01:41:37;;;;;;;;;1.00;1.00;;;;;18.12;58.06;100296.25;5080015;27;45263;-74
2023/05/04 01:44:03;;;;;;;;;1.00;1.00;;;;;18.12;58.66;100314.78;5080533;28;45356;-74
2023/05/04 01:46:30;;;;;;;;;1.33;1.33;;;;;18.00;58.53;100289.28;5079531;27;46364;-74
2023/05/04 01:48:56;;;;;;;;;1.67;1.00;;;;;17.98;58.55;100292.81;5078418;28;45517;-73
2023/05/04 01:51:21;;;;;;;;;1.33;1.00;;;;;17.97;58.57;100312.22;5078525;28;45307;-73
2023/05/04 01:53:46;;;;;;;;;2.00;1.67;;;;;17.90;58.84;100295.50;5080018;27;45503;-73
2023/05/04 01:56:13;;;;;;;;;3.00;1.67;;;;;17.93;59.09;100313.13;5079896;28;46163;-73
2023/05/04 01:58:39;;;;;;;;;0.67;0.67;;;;;17.77;59.35;100299.91;5079812;27;45380;-74
2023/05/04 02:01:05;;;;;;;;;1.00;0.67;;;;;17.73;59.16;100294.66;5080063;27;45397;-74
2023/05/04 02:03:31;;;;;;;;;2.33;1.00;;;;;17.82;59.59;100313.09;5079983;27;45402;-73
2023/05/04 02:05:56;;;;;;;;;2.00;2.00;;;;;17.68;59.33;100294.66;5078388;28;45474;-73
2023/05/04 02:08:22;;;;;;;;;0.67;0.67;;;;;17.62;59.72;100287.63;5078290;28;45393;-73
2023/05/04 02:10:48;;;;;;;;;2.00;2.00;;;;;17.72;60.02;100308.75;5079723;27;45317;-74
2023/05/04 02:13:13;;;;;;;;;1.67;1.00;;;;;17.52;60.25;100280.63;5078504;28;45427;-74
2023/05/04 02:15:39;;;;;;;;;2.67;2.00;;;;;17.57;61.15;100301.75;5079342;28;45318;-74
2023/05/04 02:18:05;;;;;;;;;1.00;1.00;;;;;17.57;60.88;100313.19;5079941;27;45430;-73
2023/05/04 02:20:30;;;;;;;;;2.33;1.00;;;;;17.44;60.25;100293.84;5077031;28;46102;-70
2023/05/04 02:22:56;;;;;;;;;2.00;2.00;;;;;17.56;60.52;100313.19;5076519;28;45600;-70
2023/05/04 02:25:24;;;;;;;;;1.00;1.00;;;;;17.45;60.47;100315.88;5077635;27;46313;-72
2023/05/04 02:27:50;;;;;;;;;1.67;1.33;;;;;17.44;60.57;100314.97;5073339;28;45404;-73
2023/05/04 02:30:15;;;;;;;;;1.67;1.33;;;;;17.38;60.41;100299.13;5077489;27;45316;-72
2023/05/04 02:32:41;;;;;;;;;4.67;2.67;;;;;17.35;60.84;100295.59;5084456;27;45524;-73
2023/05/04 02:35:07;;;;;;;;;2.00;1.67;;;;;17.32;61.04;100301.78;5077608;27;45475;-73
2023/05/04 02:37:33;;;;;;;;;1.67;1.00;;;;;17.38;60.80;100314.97;5075951;28;45464;-73
2023/05/04 02:39:58;;;;;;;;;2.33;2.33;;;;;17.24;60.85;100296.50;5077609;27;45456;-73
2023/05/04 02:42:24;;;;;;;;;1.00;1.00;;;;;17.23;61.42;100294.78;5077726;28;45306;-72
2023/05/04 02:44:50;;;;;;;;;3.00;2.00;;;;;17.27;61.54;100307.09;5074595;28;46266;-73
2023/05/04 02:47:16;;;;;;;;;2.00;2.00;;;;;17.15;61.88;100293.00;5076968;27;45525;-73
2023/05/04 02:49:41;;;;;;;;;3.33;2.33;;;;;17.03;61.75;100307.97;5075975;28;45455;-72
2023/05/04 02:52:07;;;;;;;;;2.00;2.00;;;;;17.03;61.97;100299.16;5077561;28;45460;-73
2023/05/04 02:54:32;;;;;;;;;1.67;1.00;;;;;17.06;61.57;100304.44;5077065;27;46565;-73
2023/05/04 02:56:58;;;;;;;;;4.67;2.00;;;;;17.02;61.91;100294.78;5075925;28;45436;-72
2023/05/04 02:59:24;;;;;;;;;2.00;2.00;;;;;16.97;61.94;100289.50;5077304;27;45562;-73
2023/05/04 03:01:49;;;;;;;;;3.33;2.67;;;;;16.90;61.90;100278.06;5073446;28;45712;-73
2023/05/04 03:04:15;;;;;;;;;2.00;2.00;;;;;16.94;62.26;100291.28;5075543;28;47821;-73
2023/05/04 03:06:41;;;;;;;;;3.00;2.00;;;;;16.90;62.20;100290.38;5076835;27;45538;-73
2023/05/04 03:09:07;;;;;;;;;2.00;1.00;;;;;16.84;62.50;100275.44;5076986;27;45392;-72
2023/05/04 03:11:32;;;;;;;;;2.00;2.00;;;;;16.88;62.46;100281.59;5075586;28;45770;-73
2023/05/04 03:13:58;;;;;;;;;3.00;1.00;;;;;16.89;62.65;100286.88;5076188;27;45429;-72
2023/05/04 03:16:27;;;;;;;;;2.00;2.00;;;;;16.85;63.00;100287.75;5077054;27;45405;-73
2023/05/04 03:18:53;;;;;;;;;2.00;2.00;;;;;16.77;62.19;100272.75;5074459;28;45410;-73
2023/05/04 03:21:20;;;;;;;;;2.00;2.00;;;;;16.79;62.65;100293.00;5076907;28;45336;-73
2023/05/04 03:23:45;;;;;;;;;2.00;2.00;;;;;16.69;62.91;100278.03;5083316;27;46853;-73
2023/05/04 03:26:11;;;;;;;;;2.00;2.00;;;;;16.75;62.82;100292.97;5076466;27;45495;-73
2023/05/04 03:28:36;;;;;;;;;2.00;2.00;;;;;16.70;63.25;100279.78;5076920;27;45442;-72
2023/05/04 03:31:02;;;;;;;;;2.00;2.00;;;;;16.65;63.36;100252.53;5076895;28;45623;-72
2023/05/04 03:33:28;;;;;;;;;2.00;2.00;;;;;16.68;62.57;100252.53;5076032;27;46398;-72
2023/05/04 03:35:53;;;;;;;;;1.00;1.00;;;;;16.31;62.58;100186.59;5074746;28;45531;-72
2023/05/04 03:38:19;;;;;;;;;2.00;2.00;;;;;16.71;63.00;100247.25;5076696;27;45619;-72
2023/05/04 03:40:44;;;;;;;;;2.00;2.00;;;;;16.60;63.06;100233.19;5076572;27;45584;-73
2023/05/04 03:43:10;;;;;;;;;0.67;0.67;;;;;16.62;63.13;100255.19;5073101;28;45435;-73
2023/05/04 03:45:35;;;;;;;;;1.33;1.00;;;;;16.57;63.21;100249.00;5076609;27;45508;-72
2023/05/04 03:48:01;;;;;;;;;4.33;2.00;;;;;16.43;63.12;100227.91;5076469;28;45470;-72
2023/05/04 03:50:27;;;;;;;;;1.00;1.00;;;;;16.47;63.73;100233.19;5076481;27;45567;-73
2023/05/04 03:52:52;;;;;;;;;1.67;1.67;;;;;16.49;62.78;100238.44;5076342;27;45480;-73
2023/05/04 03:55:18;;;;;;;;;1.00;1.00;;;;;16.37;63.80;100220.84;5075894;27;45420;-73
2023/05/04 03:57:44;;;;;;;;;2.33;2.00;;;;;16.40;63.86;100239.34;5076331;27;45492;-72
2023/05/04 04:00:10;;;;;;;;;2.00;2.00;;;;;16.40;63.72;100231.41;5076677;27;45484;-73
2023/05/04 04:02:36;;;;;;;;;1.33;1.33;;;;;16.45;63.55;100228.78;5076211;27;45653;-73
2023/05/04 04:05:01;;;;;;;;;1.67;1.67;;;;;16.43;63.64;100223.53;5076008;28;45555;-72
2023/05/04 04:07:27;;;;;;;;;2.00;2.00;;;;;16.35;63.70;100212.06;5074655;28;45574;-72
2023/05/04 04:09:52;;;;;;;;;2.00;1.67;;;;;16.34;63.73;100223.50;5074610;28;45424;-72
2023/05/04 04:12:19;;;;;;;;;2.00;1.00;;;;;16.30;64.20;100219.13;5075786;27;45751;-72
2023/05/04 04:14:47;;;;;;;;;2.00;1.00;;;;;16.26;63.34;100206.81;5075995;27;45391;-73
2023/05/04 04:17:13;;;;;;;;;2.00;2.00;;;;;16.32;63.68;100216.47;5073587;28;45314;-73
2023/05/04 04:19:38;;;;;;;;;1.00;1.00;;;;;16.26;63.44;100212.09;5077679;27;45360;-73
2023/05/04 04:22:04;;;;;;;;;2.00;2.00;;;;;16.10;64.31;100196.22;5077509;28;46537;-73
2023/05/04 04:24:30;;;;;;;;;2.50;2.00;;;;;16.10;63.70;100226.97;5077596;27;45563;-73
2023/05/04 04:26:56;;;;;;;;;2.00;2.00;;;;;15.97;65.27;100215.53;5077484;27;45596;-73
2023/05/04 04:29:22;;;;;;;;;3.33;2.00;;;;;15.90;64.54;100209.38;5077132;27;45421;-73
2023/05/04 04:31:47;;;;;;;;;1.00;1.00;;;;;15.87;63.53;100209.34;5075985;28;46066;-73
2023/05/04 04:34:13;;;;;;;;;1.00;1.00;;;;;15.90;64.53;100216.41;5077114;27;45490;-73
2023/05/04 04:36:39;;;;;;;;;2.00;2.00;;;;;15.90;63.83;100214.63;5076789;28;45488;-73
2023/05/04 04:39:05;;;;;;;;;1.00;1.00;;;;;15.92;63.96;100222.56;5077288;27;45302;-73
2023/05/04 04:41:31;;;;;;;;;1.00;1.00;;;;;15.87;64.50;100213.75;5075449;28;45420;-73
2023/05/04 04:43:56;;;;;;;;;3.00;2.00;;;;;15.81;64.36;100213.72;5076185;27;45557;-73
2023/05/04 04:46:22;;;;;;;;;2.00;2.00;;;;;15.80;63.88;100206.72;5076397;27;45465;-73
2023/05/04 04:48:48;;;;;;;;;1.00;1.00;;;;;15.79;63.85;100211.06;5076456;27;45411;-73
2023/05/04 04:51:13;;;;;;;;;2.00;2.00;;;;;15.77;64.14;100204.06;5076346;27;45572;-72
2023/05/04 04:53:39;;;;;;;;;2.00;2.00;;;;;15.77;64.22;100202.28;5076608;28;45319;-72
2023/05/04 04:56:06;;;;;;;;;2.00;2.00;;;;;15.91;63.56;100224.28;5076121;28;45415;-72
2023/05/04 04:58:32;;;;;;;;;2.00;2.00;;;;;15.79;64.71;100211.06;5080052;27;45307;-72
2023/05/04 05:00:58;;;;;;;;;2.00;2.00;;;;;15.87;65.16;100237.44;5079939;28;45483;-73
2023/05/04 05:03:24;;;;;;;;;2.33;2.00;;;;;15.76;65.76;100223.38;5078422;28;45525;-73
2023/05/04 05:05:49;;;;;;;;;3.00;2.00;;;;;15.83;64.76;100239.19;5079003;28;45366;-73
2023/05/04 05:08:15;;;;;;;;;2.00;2.00;;;;;15.87;65.02;100232.19;5079298;28;45452;-73
2023/05/04 05:10:41;;;;;;;;;1.33;1.00;;;;;15.86;64.50;100228.66;5080732;28;46412;-73
2023/05/04 05:13:08;;;;;;;;;2.00;2.00;;;;;15.89;64.11;100217.25;5080024;28;45409;-72
2023/05/04 05:15:34;;;;;;;;;3.00;2.00;;;;;15.86;63.88;100201.47;5079516;28;45429;-72
2023/05/04 05:17:59;;;;;;;;;2.00;1.00;;;;;16.02;64.72;100229.59;5078218;28;45558;-72
2023/05/04 05:20:25;;;;;;;;;2.00;2.00;;;;;16.00;65.03;100241.88;5079526;27;45586;-72
2023/05/04 05:22:51;;;;;;;;;2.00;2.00;;;;;15.99;64.73;100228.69;5079511;27;45535;-72
2023/05/04 05:25:17;;;;;;;;;2.00;1.75;;;;;15.96;64.36;100221.69;5079555;27;45564;-73
2023/05/04 05:27:43;;;;;;;;;2.00;2.00;;;;;16.12;64.42;100246.31;5080144;27;45487;-73
2023/05/04 05:30:10;;;;;;;;;3.00;2.33;;;;;16.13;64.21;100234.88;5079316;27;45412;-72
2023/05/04 05:32:36;;;;;;;;;2.00;2.00;;;;;16.39;63.55;100244.59;5079359;27;45407;-71
2023/05/04 05:35:03;;;;;;;;;2.00;1.67;;;;;16.51;63.06;100249.88;5076615;28;45314;-72
2023/05/04 05:37:29;;;;;;;;;2.00;1.00;;;;;16.63;62.31;100239.34;5079512;27;45485;-72
2023/05/04 05:39:55;;;;;;;;;1.00;1.00;;;;;16.76;62.54;100256.06;5079136;27;46446;-72
2023/05/04 05:42:20;;;;;;;;;2.00;2.00;;;;;16.90;62.85;100267.50;5077715;28;45282;-72
2023/05/04 05:44:46;;;;;;;;;1.00;1.00;;;;;16.93;62.82;100258.72;5077954;28;45517;-73
2023/05/04 05:47:11;;;;;;;;;3.00;3.00;;;;;17.05;62.71;100263.09;5079383;27;45313;-72
2023/05/04 05:49:37;;;;;;;;;3.00;2.00;;;;;17.21;62.15;100269.22;5078490;27;45472;-72
2023/05/04 05:52:02;;;;;;;;;2.00;2.00;;;;;17.35;61.85;100266.56;5079016;27;45407;-72
2023/05/04 05:54:30;;;;;;;;;2.00;2.00;;;;;17.50;61.73;100275.31;5078688;27;45551;-72
2023/05/04 05:56:55;;;;;;;;;3.00;2.00;;;;;17.62;61.38;100287.63;5077775;28;45545;-72
2023/05/04 05:59:21;;;;;;;;;2.00;2.00;;;;;17.76;61.15;100289.34;5077415;28;45434;-72
2023/05/04 06:01:46;;;;;;;;;1.67;1.67;;;;;17.82;60.94;100294.59;5078724;27;45358;-72
2023/05/04 06:04:12;;;;;;;;;2.67;2.00;;;;;17.81;60.47;100285.81;5079303;27;45330;-71
2023/05/04 06:06:37;;;;;;;;;2.00;2.00;;;;;18.03;60.06;100293.69;5078762;27;45357;-71
2023/05/04 06:09:04;;;;;;;;;5.00;3.00;;;;;18.20;59.84;100296.22;5078227;27;46941;-71
2023/05/04 06:11:30;;;;;;;;;2.33;1.67;;;;;18.40;59.47;100297.03;5077076;28;45536;-72
2023/05/04 06:13:56;;;;;;;;;6.00;5.67;;;;;18.44;59.38;100297.84;5076611;28;45370;-71
2023/05/04 06:16:22;;;;;;;;;9.75;9.50;;;;;18.63;59.58;100288.03;5077191;28;45250;-72
2023/05/04 06:18:47;;;;;;;;;5.00;4.67;;;;;19.39;58.33;100299.75;5076440;28;45646;-72
2023/05/04 06:21:13;;;;;;;;;6.00;6.00;;;;;19.45;57.33;100294.38;5077332;28;45636;-72
2023/05/04 06:23:39;;;;;;;;;4.00;4.00;;;;;20.29;55.83;100299.59;5076727;28;45515;-73
2023/05/04 06:26:07;;;;;;;;;3.00;2.00;;;;;23.33;49.29;100305.16;5076363;28;45416;-73
2023/05/04 06:28:34;;;;;;;;;4.00;4.00;;;;;25.71;44.56;100305.78;5077821;27;45738;-73
2023/05/04 06:31:00;;;;;;;;;3.00;3.00;;;;;27.61;39.89;100309.81;5078379;28;45307;-72
2023/05/04 06:33:26;;;;;;;;;3.00;2.00;;;;;28.96;37.52;100290.00;5078263;27;45712;-73
2023/05/04 06:35:52;;;;;;;;;2.00;1.67;;;;;29.94;36.38;100311.00;5079157;27;45369;-73
2023/05/04 06:38:18;;;;;;;;;3.00;3.00;;;;;29.24;36.76;100303.91;5094313;27;46400;-73
2023/05/04 06:40:43;;;;;;;;;2.00;2.00;;;;;27.63;39.79;100313.28;5078770;27;45290;-74
2023/05/04 06:43:09;;;;;;;;;3.00;2.67;;;;;26.79;40.67;100321.28;5077669;28;45553;-73
2023/05/04 06:45:35;;;;;;;;;4.00;4.00;;;;;25.92;41.43;100305.94;5078857;27;45306;-73
2023/05/04 06:48:01;;;;;;;;;4.00;2.00;;;;;25.52;40.57;100324.28;5077498;28;47567;-73
2023/05/04 06:50:27;;;;;;;;;5.33;5.00;;;;;25.49;41.07;100312.84;5077547;28;45484;-74
2023/05/04 06:53:03;;;;;;;;;4.00;4.00;;;;;26.46;41.13;100327.97;5078949;28;45587;-74
2023/05/04 06:55:29;;;;;;;;;3.67;3.00;;;;;26.19;40.92;100320.94;5079045;27;45481;-74
2023/05/04 06:57:55;;;;;;;;;5.67;3.00;;;;;25.64;39.40;100322.09;5077797;27;45813;-73
2023/05/04 07:00:21;;;;;;;;;3.00;2.67;;;;;25.66;42.09;100326.47;5077406;28;45508;-73
2023/05/04 07:02:47;;;;;;;;;5.00;5.00;;;;;27.86;38.10;100333.75;5078792;27;45463;-73
2023/05/04 07:05:12;;;;;;;;;5.33;5.33;;;;;28.30;36.13;100324.59;5077516;28;45360;-73
2023/05/04 07:07:38;;;;;;;;;5.00;5.00;;;;;29.76;33.26;100328.13;5076945;28;47252;-73
2023/05/04 07:10:04;;;;;;;;;3.67;3.33;;;;;29.39;33.37;100300.44;5078551;27;45539;-73
2023/05/04 07:12:29;;;;;;;;;4.50;4.00;;;;;28.42;34.46;100323.16;5078408;28;45425;-73
2023/05/04 07:14:55;;;;;;;;;6.67;6.33;;;;;30.28;33.02;100351.34;5076484;28;45502;-73
2023/05/04 07:17:24;;;;;;;;;4.00;4.00;;;;;32.17;31.54;100339.41;5078345;27;46147;-74
2023/05/04 07:19:51;;;;;;;;;5.00;4.00;;;;;33.68;30.35;100339.31;5074444;27;45366;-72
2023/05/04 07:22:17;;;;;;;;;3.00;3.00;;;;;35.03;27.02;100344.91;5078169;27;45287;-73
2023/05/04 07:24:43;;;;;;;;;5.67;4.67;;;;;36.17;25.48;100343.38;5077247;27;45297;-74
2023/05/04 07:27:09;;;;;;;;;3.33;3.00;;;;;36.96;26.74;100344.13;5077380;27;45474;-73
2023/05/04 07:29:35;;;;;;;;;3.67;3.33;;;;;37.77;21.13;100344.50;5075012;28;45313;-73
2023/05/04 07:32:00;;;;;;;;;3.00;2.33;;;;;38.84;21.50;100359.56;5077402;27;45494;-73
2023/05/04 07:34:26;;;;;;;;;2.00;2.00;;;;;39.64;20.95;100347.53;5093820;27;45508;-73
2023/05/04 07:36:51;;;;;;;;;2.33;2.00;;;;;40.65;19.69;100355.06;5093384;27;45506;-73
2023/05/04 07:39:17;;;;;;;;;8.67;8.67;;;;;40.99;17.68;100357.16;5076869;28;45512;-73
2023/05/04 07:41:42;;;;;;;;;1.67;1.33;;;;;41.44;17.92;100357.06;5078056;27;45345;-74
2023/05/04 07:44:10;;;;;;;;;1.67;1.67;;;;;42.33;17.70;100355.09;5077696;27;45542;-74
2023/05/04 07:46:36;;;;;;;;;2.00;2.00;;;;;42.77;16.45;100365.91;5077781;27;46163;-73
2023/05/04 07:49:01;;;;;;;;;1.33;0.00;;;;;42.84;16.50;100372.47;5076895;27;45574;-74
2023/05/04 07:51:27;;;;;;;;;1.00;1.00;;;;;42.91;16.49;100368.03;5077127;27;45825;-73
2023/05/04 07:53:53;;;;;;;;;2.67;2.67;;;;;42.59;16.37;100359.69;5084363;27;45687;-74
2023/05/04 07:56:18;;;;;;;;;3.00;3.00;;;;;42.76;15.71;100358.72;5076736;27;46511;-74
2023/05/04 07:58:44;;;;;;;;;3.00;2.67;;;;;43.53;17.11;100372.19;5076763;27;45647;-75
2023/05/04 08:01:12;;;;;;;;;4.67;3.00;;;;;44.04;14.05;100338.94;5077212;27;45482;-75
2023/05/04 08:03:38;;;;;;;;;3.00;3.00;;;;;44.11;16.41;100353.72;5077388;27;45454;-76
2023/05/04 08:06:03;;;;;;;;;1.00;1.00;;;;;44.81;14.68;100350.13;5077481;27;46573;-75
2023/05/04 08:08:29;;;;;;;;;3.00;2.33;;;;;45.21;15.04;100350.03;5076202;28;45642;-75
2023/05/04 08:10:55;;;;;;;;;2.00;2.00;;;;;45.36;14.26;100350.09;5076488;27;45481;-74
2023/05/04 08:13:20;;;;;;;;;1.33;1.33;;;;;45.16;13.52;100345.06;5077846;27;45531;-74
2023/05/04 08:15:46;;;;;;;;;2.33;2.00;;;;;45.17;13.80;100352.31;5075284;28;47588;-74
2023/05/04 08:18:11;;;;;;;;;2.33;2.33;;;;;45.15;13.75;100337.84;5076277;28;45286;-74
2023/05/04 08:20:37;;;;;;;;;1.67;1.67;;;;;44.98;13.44;100355.56;5077559;27;45687;-73
2023/05/04 08:23:03;;;;;;;;;1.00;1.00;;;;;45.53;13.77;100348.06;5077631;28;46106;-73
2023/05/04 08:25:29;;;;;;;;;1.00;1.00;;;;;45.63;13.60;100349.50;5075505;28;46719;-74
2023/05/04 08:27:55;;;;;;;;;1.00;1.00;;;;;45.26;14.64;100348.44;5075407;28;45523;-74
2023/05/04 08:30:21;;;;;;;;;2.67;1.67;;;;;45.55;14.58;100351.50;5077391;27;45317;-74
2023/05/04 08:32:50;;;;;;;;;2.00;2.00;;;;;45.84;14.30;100357.06;5077092;27;45480;-75
2023/05/04 08:35:16;;;;;;;;;1.67;1.67;;;;;46.20;13.93;100358.22;5077116;28;46180;-74
2023/05/04 08:37:41;;;;;;;;;2.67;2.00;;;;;46.15;14.31;100357.97;5076736;28;45374;-74
2023/05/04 08:40:07;;;;;;;;;11.00;11.00;;;;;46.37;12.97;100359.72;5076434;28;45398;-74
2023/05/04 08:42:33;;;;;;;;;3.00;2.67;;;;;46.44;13.01;100354.31;5077332;28;45399;-74
2023/05/04 08:44:59;;;;;;;;;2.33;1.67;;;;;46.40;13.14;100356.59;5076874;28;46239;-74
2023/05/04 08:47:27;;;;;;;;;1.00;0.67;;;;;46.56;12.36;100355.53;5076948;28;45437;-74
2023/05/04 08:49:55;;;;;;;;;1.67;1.67;;;;;46.30;13.25;100368.97;5077353;28;45236;-74
2023/05/04 08:52:25;;;;;;;;;1.67;1.67;;;;;46.06;12.82;100350.81;5077296;28;45447;-74
2023/05/04 08:54:54;;;;;;;;;4.33;3.67;;;;;45.99;12.97;100350.69;5058748;28;45338;-74
2023/05/04 08:57:22;;;;;;;;;1.67;1.67;;;;;46.22;12.55;100348.72;5058706;28;45263;-74
2023/05/04 08:59:51;;;;;;;;;4.33;4.33;;;;;45.64;12.71;100353.97;5077212;28;45469;-74
2023/05/04 09:02:20;;;;;;;;;0.33;0.33;;;;;45.84;13.03;100357.06;5077038;28;46013;-73
2023/05/04 09:04:45;;;;;;;;;4.00;4.00;;;;;45.82;13.13;100361.06;5076570;28;46019;-73
2023/05/04 09:07:11;;;;;;;;;0.67;0.67;;;;;45.84;12.90;100353.44;5058400;28;45475;-74
2023/05/04 09:09:37;;;;;;;;;0.67;0.67;;;;;45.47;12.87;100355.19;5058534;28;45375;-73
2023/05/04 09:12:03;;;;;;;;;0.67;0.67;;;;;45.34;12.96;100355.81;5076930;28;45453;-74
2023/05/04 09:14:33;;;;;;;;;1.67;1.33;;;;;45.40;13.18;100362.47;5076858;28;46601;-74
2023/05/04 09:17:00;;;;;;;;;1.00;1.00;;;;;44.86;13.67;100364.22;5076807;28;45427;-74
2023/05/04 09:19:32;;;;;;;;;2.00;2.00;;;;;44.59;13.68;100361.97;5059037;28;45496;-74
2023/05/04 09:22:12;;;;;;;;;1.33;0.67;;;;;44.63;13.65;100364.19;5077149;28;45481;-74
2023/05/04 09:24:37;;;;;;;;;1.33;1.33;;;;;44.67;13.52;100364.72;5076604;28;46623;-74
2023/05/04 09:27:10;;;;;;;;;1.67;1.33;;;;;44.91;13.45;100360.06;5076356;28;45232;-74
2023/05/04 09:29:38;;;;;;;;;0.00;0.00;;;;;44.77;13.65;100372.72;5076698;28;45445;-75
2023/05/04 09:32:04;;;;;;;;;1.00;1.00;;;;;44.89;13.64;100379.56;5076598;28;45490;-74
2023/05/04 09:34:31;;;;;;;;;2.00;1.67;;;;;44.61;13.80;100365.41;5075940;28;46775;-73
2023/05/04 09:37:01;;;;;;;;;0.67;0.67;;;;;44.72;13.62;100378.78;5076072;28;45512;-74
2023/05/04 09:39:28;;;;;;;;;0.67;0.67;;;;;44.71;13.03;100376.19;5076151;28;45474;-74
2023/05/04 09:41:54;;;;;;;;;1.00;1.00;;;;;44.64;14.18;100376.06;5077287;28;45493;-74
2023/05/04 09:44:21;;;;;;;;;0.67;0.67;;;;;44.76;12.97;100374.63;5079091;28;45967;-74
2023/05/04 09:46:58;;;;;;;;;2.67;1.67;;;;;44.49;13.54;100389.75;5060943;28;46031;-73
2023/05/04 09:49:31;;;;;;;;;0.33;0.33;;;;;44.27;14.47;100380.34;5077879;28;45416;-73
2023/05/04 09:52:01;;;;;;;;;0.67;0.67;;;;;44.54;14.28;100362.53;5061743;28;45665;-73
2023/05/04 09:54:28;;;;;;;;;0.67;0.67;;;;;44.75;12.72;100372.03;5062143;28;45374;-73
2023/05/04 09:57:11;;;;;;;;;1.00;1.00;;;;;44.41;14.24;100376.84;5079319;28;45507;-73
2023/05/04 09:59:38;;;;;;;;;0.67;0.00;;;;;43.93;14.51;100366.84;5061051;28;45499;-73
2023/05/04 10:02:05;;;;;;;;;1.67;1.67;;;;;43.84;14.21;100366.00;5078989;28;45444;-74
2023/05/04 10:04:32;;;;;;;;;1.67;1.67;;;;;44.02;14.09;100363.88;5079097;28;46223;-73
2023/05/04 10:07:01;;;;;;;;;0.67;0.67;;;;;44.01;14.30;100364.94;5078682;28;45498;-73
2023/05/04 10:09:29;;;;;;;;;2.33;2.33;;;;;44.13;14.32;100372.81;5060605;28;45500;-73
2023/05/04 10:11:58;;;;;;;;;0.67;0.67;;;;;43.60;13.89;100372.38;5079460;28;45513;-73
2023/05/04 10:14:24;;;;;;;;;3.00;2.67;;;;;43.45;14.95;100374.97;5078196;28;46033;-73
2023/05/04 10:17:32;;;;;;;;;2.00;2.00;;;;;42.64;15.26;100327.06;5078289;28;45338;-74
2023/05/04 10:20:09;;;;;;;;;0.67;0.67;;;;;42.54;15.67;100371.19;5056962;28;45460;-73
2023/05/04 10:23:08;;;;;;;;;1.67;1.33;;;;;42.57;14.88;100362.59;5079189;28;45509;-73
2023/05/04 10:26:15;;;;;;;;;0.00;0.00;;;;;42.72;15.65;100371.06;5078048;28;46163;-74
2023/05/04 10:28:55;;;;;;;;;0.00;0.00;;;;;42.58;15.48;100375.31;5050525;28;45590;-74
2023/05/04 10:31:21;;;;;;;;;3.00;2.67;;;;;42.60;15.42;100372.38;5060034;28;45461;-74
2023/05/04 10:33:47;;;;;;;;;0.00;0.00;;;;;42.54;15.12;100367.56;5078664;28;45441;-74
2023/05/04 10:36:16;;;;;;;;;0.67;0.67;;;;;42.78;15.78;100372.25;5078716;28;46735;-73
2023/05/04 10:38:42;;;;;;;;;0.33;0.33;;;;;42.60;15.72;100361.38;5078550;28;45423;-74
2023/05/04 10:41:18;;;;;;;;;0.67;0.67;;;;;42.63;15.65;100369.31;5079047;28;45512;-73
2023/05/04 10:43:49;;;;;;;;;1.00;0.00;;;;;42.44;15.02;100370.41;5079058;28;45419;-73
2023/05/04 10:46:22;;;;;;;;;0.67;0.67;;;;;42.20;14.55;100373.91;5078485;28;45477;-73
2023/05/04 10:48:49;;;;;;;;;3.00;3.00;;;;;41.22;18.82;100390.47;5078353;28;45446;-74
2023/05/04 10:51:19;;;;;;;;;3.33;3.33;;;;;40.20;21.50;100385.97;5078640;28;45177;-73
2023/05/04 10:53:45;;;;;;;;;1.67;1.00;;;;;38.63;23.26;100378.81;5078717;28;45484;-73
2023/05/04 10:56:26;;;;;;;;;2.33;2.33;;;;;37.15;24.20;100386.19;5060181;28;46812;-73
2023/05/04 10:58:53;;;;;;;;;2.00;2.00;;;;;35.51;25.25;100390.16;5060368;28;45435;-73
2023/05/04 11:01:20;;;;;;;;;1.67;1.67;;;;;35.07;26.82;100378.13;5060681;28;45523;-73
2023/05/04 11:03:47;;;;;;;;;2.00;1.67;;;;;35.08;25.99;100370.81;5077359;28;45473;-73
2023/05/04 11:06:23;;;;;;;;;3.00;2.00;;;;;35.13;26.03;100379.50;5077922;28;46026;-73
2023/05/04 11:08:59;;;;;;;;;1.67;1.67;;;;;34.82;26.72;100387.25;5078130;28;45312;-73
2023/05/04 11:11:26;;;;;;;;;2.67;2.67;;;;;34.73;27.14;100379.78;5078608;28;45591;-73
2023/05/04 11:13:52;;;;;;;;;3.00;2.67;;;;;34.35;28.02;100378.84;5060533;28;45456;-73
2023/05/04 11:16:26;;;;;;;;;2.00;2.00;;;;;33.69;28.50;100380.81;5078035;28;46614;-74
2023/05/04 11:18:53;;;;;;;;;2.00;2.00;;;;;33.44;29.21;100387.00;5077245;28;45338;-74
2023/05/04 11:21:25;;;;;;;;;3.67;3.00;;;;;32.13;30.91;100403.56;5078151;28;45556;-73
2023/05/04 11:23:58;;;;;;;;;3.00;2.33;;;;;31.52;31.46;100395.53;5078383;28;45442;-73